Main page
METAR-TAF:

METAR-TAF

Airports :

Basra International Airport

Basra, Iraq

latitude: 30-32-56N, longitude: 47-39-45E, elevation: 1 m

Current weather observation

The report was made 1 hour and 5 minutes ago, at 04:00 UTC
Wind 8 kt from the East
Temperature 15°C
Humidity 100%
Pressure 1020 hPa
Visibility: 3500 m
mist

METAR: ORMM 090400Z 10008KT 3500 BR NSC 15/15 Q1020 NOSIG

Time: 08:05 (05:05 UTC)

Forecast

The report was made 7 hours and 5 minutes ago, at 22:00 UTC
Forecast valid from 09 at 00 UTC to 09 at 24 UTC
Wind 10 kt from the Southeast
Visibility: 8000 m
Temporary
from 09 at 07 UTC to 09 at 11 UTC
Wind 6 kt from the South/Southwest
Becoming
from 09 at 12 UTC to 09 at 14 UTC
Wind 10 kt from the West/Northwest

TAF: ORMM 082200Z 0900/0924 14010KT 8000 NSC TEMPO 0907/0911 21006KT 5000DU BECMG 0912/0914 29010KT

Weather observations and forecasts of more than 4000 airports (METAR and TAF reports).

The available stations are represented by yellow and red dots on the map.

Hover mouse over dot to see the name of the station.

Then click to see weather observations and forecasts.

To change the map : click on the green buttons with a black cross to zoom in, on the green button with a dash to zoom out, or on the green arrows for adjacent maps.


METAR-TAF: